Beluga Airport


Codes: PABG/BVU
Name: Beluga Airport
City: Beluga
Country: United States
Elevation: 130 ft.
Wikipedia:

Photos at Beluga Airport


   Photos courtesy of SpottingLog. You can add your own sightings and photos by signing up for a free trial today.



No photos found.

Weather at Beluga Airport


Time (UTC)DescriptionTempratureWindCloud coverageVisibilityPressureHumidity
18-Apr-2024 00:00Overcast Clouds3°C9 mph, E100%10000m1024hPa79%
18-Apr-2024 03:00Overcast Clouds3°C13 mph, E100%7901m1024hPa80%
18-Apr-2024 06:00Overcast Clouds3°C13 mph, E100%10000m1025hPa77%
18-Apr-2024 09:00Overcast Clouds2°C13 mph, NE100%10000m1025hPa77%
18-Apr-2024 12:00Overcast Clouds2°C13 mph, NE100%10000m1025hPa78%
18-Apr-2024 15:00Overcast Clouds1°C11 mph, NE100%10000m1025hPa83%
18-Apr-2024 18:00Overcast Clouds2°C11 mph, NE100%10000m1026hPa87%
18-Apr-2024 21:00Overcast Clouds5°C11 mph, NE99%10000m1025hPa80%
19-Apr-2024 00:00Overcast Clouds5°C9 mph, N100%10000m1025hPa77%
19-Apr-2024 03:00Light Rain4°C11 mph, N100%10000m1024hPa83%
19-Apr-2024 06:00Light Rain3°C11 mph, N100%10000m1024hPa81%
19-Apr-2024 09:00Broken Clouds2°C9 mph, N51%10000m1023hPa72%
19-Apr-2024 12:00Broken Clouds2°C9 mph, N75%10000m1023hPa76%
19-Apr-2024 15:00Light Rain2°C9 mph, N100%10000m1022hPa82%
19-Apr-2024 18:00Light Rain3°C9 mph, N100%10000m1022hPa80%
19-Apr-2024 21:00Overcast Clouds6°C11 mph, N100%10000m1021hPa65%
20-Apr-2024 00:00Overcast Clouds7°C9 mph, N100%10000m1020hPa61%
20-Apr-2024 03:00Overcast Clouds6°C9 mph, N100%10000m1018hPa72%
20-Apr-2024 06:00Overcast Clouds5°C9 mph, N100%10000m1017hPa72%
20-Apr-2024 09:00Overcast Clouds4°C7 mph, N100%10000m1017hPa73%
20-Apr-2024 12:00Overcast Clouds3°C7 mph, N100%10000m1016hPa75%
20-Apr-2024 15:00Overcast Clouds2°C9 mph, N100%10000m1015hPa75%
20-Apr-2024 18:00Overcast Clouds5°C9 mph, N97%10000m1014hPa64%
20-Apr-2024 21:00Broken Clouds8°C7 mph, NE78%10000m1013hPa52%
21-Apr-2024 00:00Broken Clouds9°C7 mph, NE71%10000m1011hPa47%
21-Apr-2024 03:00Broken Clouds10°C7 mph, NE82%10000m1010hPa48%
21-Apr-2024 06:00Broken Clouds7°C7 mph, NE63%10000m1011hPa60%
21-Apr-2024 09:00Broken Clouds5°C2 mph, NW65%10000m1011hPa73%
21-Apr-2024 12:00Broken Clouds4°C2 mph, N82%10000m1012hPa76%
21-Apr-2024 15:00Overcast Clouds3°C2 mph, N100%10000m1013hPa79%
21-Apr-2024 18:00Overcast Clouds4°C7 mph, S100%10000m1015hPa79%
21-Apr-2024 21:00Overcast Clouds5°C11 mph, SW100%10000m1017hPa85%
22-Apr-2024 00:00Overcast Clouds5°C13 mph, SW93%10000m1019hPa85%
22-Apr-2024 03:00Scattered Clouds5°C9 mph, SW45%10000m1020hPa74%
22-Apr-2024 06:00Broken Clouds3°C4 mph, S67%10000m1022hPa83%
22-Apr-2024 09:00Overcast Clouds3°C4 mph, SE100%10000m1023hPa86%
22-Apr-2024 12:00Overcast Clouds3°C2 mph, SE100%10000m1023hPa89%
22-Apr-2024 15:00Overcast Clouds3°C0 mph, NW100%10000m1023hPa87%
22-Apr-2024 18:00Overcast Clouds4°C4 mph, N100%10000m1023hPa78%
22-Apr-2024 21:00Overcast Clouds5°C4 mph, NE100%10000m1022hPa74%